x

Mt Desert Rock, Me (mdrm1) Weather Station

11:00 - Fri 30th Sep 2016 All times are EDT. -4 hours from GMT.

  • Wind
    10mph, 13mph gusts
  • Luft Temp 54°f
  • Sea Pressure 1034.1mb
  • Mt Desert Rock, Me
  • Mt Desert Rock, Me

More Historic Weather Station data

Upgrade to MSW Pro to gain access to the past 30 days of data for over 8000 Wavebouys and Weather Stations around the globe.

Join Pro

Comparision Forecast

View Surf forecast
   
Fr 09/30 11:00 10 13 mph 1034.1mb 54f
10:00 10
mph
1034.4mb 53f
9:00 14 15 mph 1034mb 53f
8:00 13 14 mph 1033.8mb 53f
7:00 11 13 mph 1033.8mb 53f
6:00 10 11 mph 1033.8mb 54f
5:00 11 13 mph 1033.6mb 54f
4:00 11 13 mph 1033.8mb 54f
3:00 11 13 mph 1033.7mb 55f
2:00 11 13 mph 1033.7mb 55f
1:00 10
mph
1034.3mb 55f
12:00 9 10 mph 1034.1mb 55f
Do 09/29 11:00 10 11 mph 1034.3mb 56f
10:00 10 11 mph 1034.2mb 56f
9:00 10 11 mph 1033.8mb 56f
8:00 9 10 mph 1033.6mb 56f
7:00 9 10 mph 1033.4mb 56f
6:00 9 10 mph 1033.2mb 56f
5:00 10
mph
1032.8mb 56f
4:00 10 11 mph 1032.5mb 56f
3:00 11 13 mph 1032.6mb 55f
2:00 15 16 mph 1032.4mb 55f
1:00 15
mph
1032.9mb 54f
12:00 17 20 mph 1033mb 53f
11:00 16 20 mph 1033mb 52f
10:00 17 20 mph 1032.7mb 51f
9:00 21 23 mph 1031.9mb 51f
8:00 21 23 mph 1031.3mb 51f
7:00 22 24 mph 1030.6mb 50f
6:00 22 24 mph 1030mb 50f
5:00 25 29 mph 1029.3mb 50f
4:00 24 26 mph 1029.1mb 50f
3:00 21 25 mph 1029.2mb 51f
2:00 21 24 mph 1029.2mb 52f
1:00 22 24 mph 1028.9mb 52f
12:00 24 28 mph 1028.9mb 54f
Mi 09/28 11:00 25 28 mph 1029mb 54f
10:00 22 25 mph 1028.6mb 56f
9:00 21 24 mph 1028.3mb 56f
8:00 21 23 mph 1027.8mb 56f
7:00 21 23 mph 1027.3mb 56f
6:00 21 25 mph 1026.7mb 56f
5:00 18 22 mph 1026.2mb 56f
4:00 24 30 mph 1025.9mb 56f
3:00 26 30 mph 1025.7mb 55f
2:00 24 26 mph 1025.6mb 54f
1:00 22 25 mph 1025.5mb 54f
12:00 23 25 mph 1025.5mb 53f
11:00 20 23 mph 1025.6mb 53f
10:00 18 21 mph 1025.5mb 52f
9:00 22 24 mph 1024.8mb 51f
8:00 17 21 mph 1024.4mb 51f
7:00 20 23 mph 1023.4mb 51f
6:00 17 23 mph 1022.2mb 52f
5:00 17 21 mph 1021.5mb 52f
4:00 17 20 mph 1021mb 53f
3:00 16 20 mph 1020.5mb 53f
2:00 18 20 mph 1019.9mb 54f
1:00 16 20 mph 1019.8mb 53f
12:00 14 16 mph 1019.2mb 53f
Di 09/27 11:00 14 16 mph 1018.4mb 55f
10:00 17 18 mph 1017.7mb 55f
9:00 17 18 mph 1016.3mb 55f
8:00 15 16 mph 1015.2mb 55f
7:00 11 13 mph 1014.5mb 56f
6:00 9
mph
1014.1mb 56f
5:00 5 6 mph 1013.3mb 56f
4:00 8
mph
1011.8mb 56f
3:00 6
mph
1012mb 56f
2:00 5
mph
1011.6mb 57f
1:00  -  mph 1012mb 58f
12:00 6
mph
1012.6mb 57f
11:00 11 14 mph 1012.6mb 58f
10:00 10
mph
1012.9mb 57f
9:00 14 15 mph 1013mb 57f
8:00 16 18 mph 1013.1mb 57f
7:00 16 17 mph 1013mb 58f
6:00 16 18 mph 1013.2mb 58f
5:00 14 15 mph 1013.5mb 58f
4:00 14 15 mph 1014mb 57f
3:00 14 15 mph 1014.7mb 57f
2:00 13 14 mph 1015.6mb 57f
1:00 13 15 mph 1016.3mb 56f
12:00 11 14 mph 1017mb 56f
Mo 09/26 11:00 10 11 mph 1017.4mb 55f
10:00 13 15 mph 1018mb 55f
9:00 13 15 mph 1018.2mb 55f
8:00 15
mph
1018.6mb 54f
7:00 13 15 mph 1018.8mb 54f
6:00 14 15 mph 1019mb 54f